Time;durP1;ratioP1;P1;durP2;ratioP2;P2;SDS_P1;SDS_P2;PMS_P1;PMS_P2;Temp;Humidity;BMP_temperature;BMP_pressure;BME280_temperature;BME280_humidity;BME280_pressure;Samples;Min_cycle;Max_cycle;Signal;HPM_P1;HPM_P2
2023/07/06 00:01:06;;;;;;;3.13;2.57;;;12.00;99.90;;;;;;494503;240;28472;-78
2023/07/06 00:03:08;;;;;;;3.20;2.70;;;12.00;99.90;;;;;;494550;240;28049;-79
2023/07/06 00:05:09;;;;;;;9.37;6.67;;;11.90;99.90;;;;;;494532;240;28486;-78
2023/07/06 00:07:11;;;;;;;5.30;4.50;;;11.90;99.90;;;;;;494547;240;28168;-78
2023/07/06 00:09:13;;;;;;;5.87;3.63;;;11.80;99.90;;;;;;494446;240;28190;-79
2023/07/06 00:11:13;;;;;;;4.00;3.13;;;11.80;99.90;;;;;;494457;240;29355;-78
2023/07/06 00:13:14;;;;;;;5.57;3.00;;;11.70;99.90;;;;;;494534;240;28590;-79
2023/07/06 00:15:15;;;;;;;9.40;2.90;;;11.70;99.90;;;;;;494556;240;28470;-79
2023/07/06 00:17:17;;;;;;;3.63;2.70;;;11.60;99.90;;;;;;493872;235;28471;-79
2023/07/06 00:19:19;;;;;;;5.90;3.13;;;11.60;99.90;;;;;;494565;240;28095;-79
2023/07/06 00:21:19;;;;;;;2.90;2.50;;;11.60;99.90;;;;;;494534;240;28510;-79
2023/07/06 00:23:21;;;;;;;8.03;2.70;;;11.60;99.90;;;;;;494625;240;28422;-78
2023/07/06 00:25:21;;;;;;;2.57;2.37;;;11.60;99.90;;;;;;494633;240;28234;-78
2023/07/06 00:27:23;;;;;;;3.27;2.50;;;11.60;99.90;;;;;;494646;240;27963;-78
2023/07/06 00:29:26;;;;;;;3.17;2.80;;;11.60;99.90;;;;;;494631;240;28817;-78
2023/07/06 00:31:50;;;;;;;3.30;2.20;;;11.70;99.90;;;;;;494430;240;28384;-78
2023/07/06 00:33:36;;;;;;;2.77;2.43;;;11.60;99.90;;;;;;493382;240;28594;-77
2023/07/06 00:35:37;;;;;;;4.00;2.60;;;11.60;99.90;;;;;;494548;240;28258;-78
2023/07/06 00:37:38;;;;;;;4.10;2.53;;;11.60;99.90;;;;;;494614;240;28746;-79
2023/07/06 00:39:39;;;;;;;5.77;2.90;;;11.50;99.90;;;;;;494616;240;28763;-79
2023/07/06 00:41:40;;;;;;;2.70;2.50;;;11.50;99.90;;;;;;494632;240;29127;-78
2023/07/06 00:43:42;;;;;;;3.00;2.53;;;11.50;99.90;;;;;;494620;240;29491;-78
2023/07/06 00:45:44;;;;;;;4.13;2.67;;;11.40;99.90;;;;;;494653;240;28666;-78
2023/07/06 00:47:44;;;;;;;5.63;3.00;;;11.40;99.90;;;;;;494585;240;28604;-79
2023/07/06 00:49:45;;;;;;;2.40;2.20;;;11.50;99.90;;;;;;494618;240;27950;-79
2023/07/06 00:51:47;;;;;;;2.90;2.60;;;11.50;99.90;;;;;;494621;240;28572;-79
2023/07/06 00:53:48;;;;;;;2.63;2.43;;;11.40;99.90;;;;;;494611;240;28036;-79
2023/07/06 00:55:49;;;;;;;2.30;2.10;;;11.40;99.90;;;;;;491223;238;28598;-78
2023/07/06 00:57:53;;;;;;;3.43;2.40;;;11.30;99.90;;;;;;481811;247;28421;-79
2023/07/06 00:59:54;;;;;;;2.80;2.60;;;11.30;99.90;;;;;;481797;247;28344;-78
2023/07/06 01:01:55;;;;;;;2.40;1.90;;;11.40;99.90;;;;;;481788;247;28244;-78
2023/07/06 01:03:58;;;;;;;2.83;2.50;;;11.30;99.90;;;;;;481756;247;28315;-77
2023/07/06 01:05:58;;;;;;;2.80;2.60;;;11.30;99.90;;;;;;481769;247;28558;-78
2023/07/06 01:08:01;;;;;;;5.13;3.07;;;11.30;99.90;;;;;;481771;247;29159;-78
2023/07/06 01:10:00;;;;;;;2.30;2.10;;;11.20;99.90;;;;;;481744;247;28707;-78
2023/07/06 01:12:02;;;;;;;3.13;2.37;;;11.20;99.90;;;;;;481809;247;28096;-78
2023/07/06 01:14:03;;;;;;;2.67;2.30;;;11.10;99.90;;;;;;481819;247;28293;-78
2023/07/06 01:16:04;;;;;;;4.33;2.67;;;11.00;99.90;;;;;;481846;247;28238;-78
2023/07/06 01:18:06;;;;;;;5.90;2.83;;;11.00;99.90;;;;;;481772;247;28108;-78
2023/07/06 01:20:13;;;;;;;2.80;2.30;;;11.00;99.90;;;;;;481754;247;28116;-79
2023/07/06 01:22:12;;;;;;;3.30;2.40;;;10.90;99.90;;;;;;481384;247;28356;-78
2023/07/06 01:24:10;;;;;;;3.53;2.80;;;10.90;99.90;;;;;;481502;247;28314;-78
2023/07/06 01:26:12;;;;;;;2.80;2.60;;;10.80;99.90;;;;;;481754;245;27912;-78
2023/07/06 01:28:13;;;;;;;3.03;2.40;;;10.80;99.90;;;;;;481664;247;28035;-78
2023/07/06 01:30:13;;;;;;;3.13;2.83;;;10.80;99.90;;;;;;481746;246;28649;-78
2023/07/06 01:32:16;;;;;;;3.60;2.20;;;;;;;;;;481800;247;28551;-78
2023/07/06 01:34:17;;;;;;;2.83;2.53;;;10.60;99.90;;;;;;481783;247;27107;-78
2023/07/06 01:36:19;;;;;;;10.80;2.90;;;10.60;99.90;;;;;;481780;247;28021;-78
2023/07/06 01:38:21;;;;;;;6.17;2.70;;;10.70;99.90;;;;;;481717;247;27975;-78
2023/07/06 01:40:20;;;;;;;3.37;2.80;;;10.70;99.90;;;;;;481669;247;28140;-78
2023/07/06 01:42:24;;;;;;;3.63;2.27;;;10.70;99.90;;;;;;481803;247;28636;-78
2023/07/06 01:44:23;;;;;;;3.43;3.00;;;10.70;99.90;;;;;;481584;247;28563;-78
2023/07/06 01:46:24;;;;;;;2.80;2.57;;;10.70;99.90;;;;;;481743;247;28624;-78
2023/07/06 01:48:26;;;;;;;4.70;3.00;;;10.70;99.90;;;;;;481788;247;27928;-78
2023/07/06 01:50:27;;;;;;;4.20;3.00;;;10.70;99.90;;;;;;481807;247;27973;-78
2023/07/06 01:52:28;;;;;;;4.83;2.80;;;10.70;99.90;;;;;;481794;247;28037;-78
2023/07/06 01:54:29;;;;;;;2.80;2.50;;;10.70;99.90;;;;;;481797;247;27996;-78
2023/07/06 01:56:30;;;;;;;3.30;2.90;;;10.80;99.90;;;;;;481736;247;27941;-78
2023/07/06 01:58:32;;;;;;;2.83;2.50;;;10.70;99.90;;;;;;481810;247;28476;-78
2023/07/06 02:00:33;;;;;;;4.00;2.83;;;10.60;99.90;;;;;;481787;247;27899;-78
2023/07/06 02:02:34;;;;;;;2.20;2.03;;;10.60;99.90;;;;;;481752;247;27905;-78
2023/07/06 02:04:35;;;;;;;2.97;2.70;;;10.60;99.90;;;;;;481781;247;27877;-78
2023/07/06 02:06:37;;;;;;;4.10;2.83;;;10.60;99.90;;;;;;481774;247;28571;-78
2023/07/06 02:08:41;;;;;;;4.90;3.10;;;10.60;99.90;;;;;;481810;247;28549;-78
2023/07/06 02:10:39;;;;;;;3.37;3.00;;;10.60;99.90;;;;;;481596;247;28571;-78
2023/07/06 02:12:42;;;;;;;2.57;2.37;;;10.60;99.90;;;;;;481791;247;28793;-79
2023/07/06 02:14:42;;;;;;;3.47;2.77;;;10.50;99.90;;;;;;481668;247;27849;-78
2023/07/06 02:16:43;;;;;;;5.00;3.00;;;10.50;99.90;;;;;;481772;247;28136;-78
2023/07/06 02:18:44;;;;;;;5.67;2.70;;;10.50;99.90;;;;;;481771;247;27998;-78
2023/07/06 02:20:47;;;;;;;3.23;2.50;;;10.40;99.90;;;;;;481789;247;28152;-78
2023/07/06 02:22:47;;;;;;;3.00;2.50;;;10.30;99.90;;;;;;481747;247;28222;-78
2023/07/06 02:24:48;;;;;;;5.30;2.90;;;10.40;99.90;;;;;;481794;247;27819;-78
2023/07/06 02:26:49;;;;;;;3.27;2.57;;;10.30;99.90;;;;;;481767;247;27985;-78
2023/07/06 02:28:52;;;;;;;3.00;2.70;;;10.40;99.90;;;;;;481806;246;28008;-78
2023/07/06 02:30:55;;;;;;;5.83;2.40;;;10.40;99.90;;;;;;481756;247;27852;-78
2023/07/06 02:32:56;;;;;;;2.90;2.60;;;10.40;99.90;;;;;;481827;247;27929;-78
2023/07/06 02:34:57;;;;;;;2.57;2.37;;;10.40;99.90;;;;;;481829;247;27922;-78
2023/07/06 02:36:59;;;;;;;3.53;2.80;;;10.40;99.90;;;;;;481778;247;27976;-79
2023/07/06 02:39:01;;;;;;;2.47;2.27;;;10.40;99.90;;;;;;481784;247;27873;-78
2023/07/06 02:41:04;;;;;;;4.33;2.70;;;10.50;99.90;;;;;;481738;247;28634;-78
2023/07/06 02:43:07;;;;;;;2.67;2.47;;;10.30;99.90;;;;;;481803;247;27900;-78
2023/07/06 02:45:07;;;;;;;2.73;2.53;;;10.30;99.90;;;;;;481733;247;27936;-78
2023/07/06 02:47:08;;;;;;;4.33;2.60;;;10.30;99.90;;;;;;481753;247;28000;-78
2023/07/06 02:49:09;;;;;;;2.90;2.60;;;10.30;99.90;;;;;;481793;247;28262;-78
2023/07/06 02:51:10;;;;;;;7.00;2.93;;;10.20;99.90;;;;;;481790;247;27897;-78
2023/07/06 02:53:12;;;;;;;3.40;2.60;;;10.20;99.90;;;;;;481803;247;27803;-78
2023/07/06 02:55:13;;;;;;;3.77;2.90;;;10.10;99.90;;;;;;481776;247;27873;-78
2023/07/06 02:57:14;;;;;;;3.07;2.77;;;10.20;99.90;;;;;;481750;247;27806;-78
2023/07/06 02:59:15;;;;;;;3.70;2.50;;;10.20;99.90;;;;;;486606;244;28487;-78
2023/07/06 03:01:18;;;;;;;3.10;2.67;;;10.10;99.90;;;;;;486733;244;28331;-78
2023/07/06 03:03:18;;;;;;;3.30;3.00;;;10.10;99.90;;;;;;486650;244;28557;-78
2023/07/06 03:05:23;;;;;;;6.10;3.07;;;10.10;99.90;;;;;;486714;244;28146;-78
2023/07/06 03:07:23;;;;;;;3.20;2.70;;;10.10;99.90;;;;;;486681;244;28312;-78
2023/07/06 03:09:24;;;;;;;2.80;2.60;;;10.00;99.90;;;;;;486702;244;28367;-78
2023/07/06 03:11:26;;;;;;;4.40;2.87;;;10.10;99.90;;;;;;486742;244;27880;-79
2023/07/06 03:13:28;;;;;;;6.53;3.00;;;10.00;99.90;;;;;;486734;244;28107;-78
2023/07/06 03:15:31;;;;;;;4.47;2.73;;;10.10;99.90;;;;;;486679;244;28031;-78
2023/07/06 03:17:32;;;;;;;4.57;2.93;;;10.10;99.90;;;;;;486699;244;27922;-77
2023/07/06 03:19:34;;;;;;;6.73;2.97;;;10.10;99.90;;;;;;486722;244;27873;-78
2023/07/06 03:21:35;;;;;;;3.73;2.30;;;10.10;99.90;;;;;;486710;244;27869;-78
2023/07/06 03:23:36;;;;;;;3.70;2.70;;;10.20;99.90;;;;;;486766;244;27949;-78
2023/07/06 03:25:37;;;;;;;3.00;2.43;;;10.10;99.90;;;;;;486723;244;28132;-78
2023/07/06 03:27:40;;;;;;;3.20;2.87;;;10.10;99.90;;;;;;486719;244;28060;-78
2023/07/06 03:29:40;;;;;;;3.00;2.63;;;10.10;99.90;;;;;;486608;244;27969;-78
2023/07/06 03:31:42;;;;;;;3.47;2.83;;;10.00;99.90;;;;;;486687;244;28029;-78
2023/07/06 03:33:43;;;;;;;3.20;2.83;;;10.00;99.90;;;;;;486688;244;28035;-79
2023/07/06 03:35:44;;;;;;;5.20;3.40;;;10.00;99.90;;;;;;486726;244;28641;-78
2023/07/06 03:37:48;;;;;;;2.70;2.50;;;10.00;99.90;;;;;;486719;244;28452;-78
2023/07/06 03:39:47;;;;;;;2.97;2.67;;;10.00;99.90;;;;;;486322;244;28436;-78
2023/07/06 03:41:47;;;;;;;3.57;2.63;;;10.00;99.90;;;;;;486678;244;28084;-78
2023/07/06 03:43:49;;;;;;;3.07;2.77;;;10.00;99.90;;;;;;486737;244;27994;-77
2023/07/06 03:45:50;;;;;;;3.30;2.90;;;10.00;99.90;;;;;;486726;244;28000;-78
2023/07/06 03:47:51;;;;;;;2.67;2.47;;;10.00;99.90;;;;;;486722;244;27892;-78
2023/07/06 03:49:52;;;;;;;4.73;2.80;;;10.00;99.90;;;;;;486704;244;27961;-78
2023/07/06 03:51:54;;;;;;;4.53;2.70;;;10.00;99.90;;;;;;486715;244;27976;-78
2023/07/06 03:53:55;;;;;;;6.17;2.90;;;10.00;99.90;;;;;;486727;244;28693;-78
2023/07/06 03:55:56;;;;;;;2.70;2.47;;;10.00;99.90;;;;;;486757;244;28503;-78
2023/07/06 03:58:00;;;;;;;3.97;2.70;;;10.00;99.90;;;;;;486773;244;28385;-78
2023/07/06 03:59:59;;;;;;;2.77;2.57;;;10.00;99.90;;;;;;486640;244;28200;-79
2023/07/06 04:02:00;;;;;;;3.43;2.93;;;10.00;99.90;;;;;;486764;244;27959;-78
2023/07/06 04:04:01;;;;;;;3.00;2.70;;;10.10;99.90;;;;;;486793;244;28024;-78
2023/07/06 04:06:03;;;;;;;4.30;2.67;;;10.10;99.90;;;;;;486820;244;28056;-78
2023/07/06 04:08:04;;;;;;;4.37;3.03;;;10.10;99.90;;;;;;486669;244;28066;-78
2023/07/06 04:10:05;;;;;;;3.30;3.00;;;10.10;99.90;;;;;;486743;244;27871;-78
2023/07/06 04:12:07;;;;;;;3.53;2.93;;;10.00;99.90;;;;;;486751;244;27986;-78
2023/07/06 04:14:08;;;;;;;7.07;3.33;;;10.00;99.90;;;;;;486661;244;28341;-79
2023/07/06 04:16:09;;;;;;;3.00;2.70;;;10.00;99.90;;;;;;486743;244;28209;-78
2023/07/06 04:18:10;;;;;;;3.00;2.80;;;10.10;99.90;;;;;;486744;244;28290;-78
2023/07/06 04:20:14;;;;;;;3.57;2.80;;;10.20;99.90;;;;;;486737;244;28471;-78
2023/07/06 04:22:12;;;;;;;5.13;3.13;;;10.20;99.90;;;;;;486598;244;28478;-78
2023/07/06 04:24:16;;;;;;;3.53;2.50;;;;;;;;;;486764;244;28614;-78
2023/07/06 04:26:16;;;;;;;2.70;2.50;;;10.20;99.90;;;;;;486694;244;27271;-78
2023/07/06 04:28:17;;;;;;;3.03;2.73;;;10.30;99.90;;;;;;486693;244;27961;-78
2023/07/06 04:30:20;;;;;;;2.90;2.70;;;10.40;99.90;;;;;;486721;244;28207;-78
2023/07/06 04:32:23;;;;;;;3.50;2.80;;;10.50;99.90;;;;;;486672;244;29312;-79
2023/07/06 04:34:21;;;;;;;3.77;2.87;;;10.60;99.90;;;;;;486607;244;28808;-78
2023/07/06 04:36:22;;;;;;;2.70;2.30;;;10.70;99.90;;;;;;486747;244;28545;-78
2023/07/06 04:38:29;;;;;;;2.40;2.20;;;10.70;99.90;;;;;;486733;244;28384;-79
2023/07/06 04:40:27;;;;;;;2.63;2.43;;;10.70;99.90;;;;;;486585;244;28168;-78
2023/07/06 04:42:30;;;;;;;4.13;2.40;;;;;;;;;;486736;244;28312;-78
2023/07/06 04:44:31;;;;;;;4.53;2.97;;;10.80;99.90;;;;;;486728;244;27645;-78
2023/07/06 04:46:32;;;;;;;5.40;2.83;;;10.90;99.90;;;;;;486777;244;28606;-78
2023/07/06 04:48:34;;;;;;;3.70;2.63;;;10.90;99.90;;;;;;486760;244;27978;-78
2023/07/06 04:50:37;;;;;;;3.63;2.77;;;10.90;99.90;;;;;;486746;244;28237;-79
2023/07/06 04:52:37;;;;;;;2.67;2.47;;;10.90;99.90;;;;;;486650;244;28192;-79
2023/07/06 04:54:39;;;;;;;3.30;2.50;;;11.00;99.90;;;;;;486678;244;28106;-79
2023/07/06 04:56:39;;;;;;;3.33;2.73;;;11.00;99.90;;;;;;486665;244;28097;-78
2023/07/06 04:58:42;;;;;;;2.47;2.27;;;;;;;;;;486775;244;28030;-79
2023/07/06 05:00:45;;;;;;;3.00;2.60;;;11.00;99.90;;;;;;486625;244;27526;-79
2023/07/06 05:02:45;;;;;;;3.67;2.90;;;11.10;99.90;;;;;;486601;241;28206;-79
2023/07/06 05:04:48;;;;;;;3.17;2.87;;;11.20;99.90;;;;;;486673;241;28211;-79
2023/07/06 05:06:47;;;;;;;3.27;2.70;;;11.30;99.90;;;;;;486549;244;28506;-79
2023/07/06 05:08:49;;;;;;;3.20;2.90;;;11.40;99.90;;;;;;486732;244;28328;-79
2023/07/06 05:10:49;;;;;;;3.10;2.63;;;11.50;99.90;;;;;;486681;240;28393;-78
2023/07/06 05:12:51;;;;;;;4.40;2.80;;;11.60;99.90;;;;;;486692;244;28720;-78
2023/07/06 05:14:52;;;;;;;2.90;2.60;;;11.60;99.90;;;;;;486632;244;28496;-79
2023/07/06 05:16:53;;;;;;;2.70;2.50;;;11.60;99.90;;;;;;486675;244;28289;-79
2023/07/06 05:18:54;;;;;;;5.43;2.90;;;11.70;99.90;;;;;;486715;244;29228;-78
2023/07/06 05:20:57;;;;;;;3.47;2.80;;;;;;;;;;486732;244;28491;-79
2023/07/06 05:22:57;;;;;;;2.63;2.27;;;11.80;99.90;;;;;;486736;244;26656;-79
2023/07/06 05:24:59;;;;;;;3.13;2.60;;;11.90;99.90;;;;;;486705;244;28303;-79
2023/07/06 05:27:00;;;;;;;4.63;3.00;;;11.90;99.90;;;;;;486723;244;28582;-79
2023/07/06 05:29:01;;;;;;;8.70;2.80;;;12.00;99.90;;;;;;486689;244;28348;-78
2023/07/06 05:31:02;;;;;;;4.63;2.77;;;12.00;99.90;;;;;;486706;244;29258;-78
2023/07/06 05:33:04;;;;;;;4.23;2.80;;;12.10;99.90;;;;;;486712;244;29592;-78
2023/07/06 05:35:05;;;;;;;2.93;2.67;;;12.10;99.90;;;;;;486764;244;28685;-78
2023/07/06 05:37:06;;;;;;;6.60;3.07;;;12.20;99.90;;;;;;486742;244;29222;-78
2023/07/06 05:39:07;;;;;;;3.73;2.80;;;12.20;99.90;;;;;;486729;244;28110;-79
2023/07/06 05:41:09;;;;;;;4.50;2.80;;;12.30;99.90;;;;;;486749;244;28128;-79
2023/07/06 05:43:10;;;;;;;3.40;2.97;;;12.40;99.90;;;;;;486710;244;27963;-79
2023/07/06 05:45:11;;;;;;;3.40;3.07;;;12.50;99.90;;;;;;486750;244;28095;-79
2023/07/06 05:47:12;;;;;;;4.77;3.27;;;12.60;99.90;;;;;;486759;244;28150;-79
2023/07/06 05:49:15;;;;;;;3.00;2.80;;;;;;;;;;486747;244;28177;-78
2023/07/06 05:51:16;;;;;;;3.73;2.60;;;12.70;99.90;;;;;;486770;244;26552;-79
2023/07/06 05:53:18;;;;;;;3.33;2.30;;;;;;;;;;486747;244;27987;-79
2023/07/06 05:55:20;;;;;;;2.80;2.60;;;12.90;99.90;;;;;;486764;244;26534;-79
2023/07/06 05:57:21;;;;;;;3.20;2.70;;;13.00;99.90;;;;;;486731;244;28649;-78
2023/07/06 05:59:24;;;;;;;2.87;2.60;;;13.10;99.90;;;;;;486674;244;28755;-79
2023/07/06 06:01:23;;;;;;;2.90;2.53;;;13.20;99.90;;;;;;486640;244;28824;-79
2023/07/06 06:03:25;;;;;;;4.37;2.87;;;13.20;99.90;;;;;;486764;244;28810;-79
2023/07/06 06:05:26;;;;;;;3.40;2.17;;;13.30;99.90;;;;;;486736;244;28084;-79
2023/07/06 06:07:29;;;;;;;3.47;2.60;;;13.40;99.90;;;;;;486744;244;28209;-79
2023/07/06 06:09:28;;;;;;;3.30;2.50;;;13.50;99.90;;;;;;486661;244;28259;-79
2023/07/06 06:11:33;;;;;;;3.00;2.53;;;13.50;99.90;;;;;;486751;244;28113;-79
2023/07/06 06:13:31;;;;;;;2.90;2.70;;;13.60;99.90;;;;;;486569;244;28282;-80
2023/07/06 06:15:33;;;;;;;3.27;2.70;;;13.70;99.90;;;;;;486706;244;28202;-79
2023/07/06 06:17:34;;;;;;;5.40;2.90;;;13.70;99.90;;;;;;486733;244;28482;-78
2023/07/06 06:19:35;;;;;;;6.30;3.03;;;13.80;99.90;;;;;;486709;244;28373;-78
2023/07/06 06:21:36;;;;;;;4.40;2.97;;;13.80;99.90;;;;;;486771;244;28715;-78
2023/07/06 06:23:40;;;;;;;6.23;2.80;;;13.90;99.90;;;;;;486790;244;28986;-78
2023/07/06 06:25:38;;;;;;;4.23;2.80;;;14.00;99.90;;;;;;486615;244;29098;-79
2023/07/06 06:27:40;;;;;;;3.67;2.90;;;14.10;99.90;;;;;;486757;244;29236;-79
2023/07/06 06:29:42;;;;;;;2.60;2.40;;;14.10;99.90;;;;;;486752;244;29107;-79
2023/07/06 06:31:42;;;;;;;7.83;2.97;;;14.20;99.90;;;;;;486773;244;28787;-78
2023/07/06 06:33:46;;;;;;;3.30;2.73;;;14.30;99.90;;;;;;486777;244;28406;-79
2023/07/06 06:35:47;;;;;;;4.07;2.83;;;14.40;99.90;;;;;;486796;244;28677;-78
2023/07/06 06:37:49;;;;;;;5.00;2.70;;;14.50;99.90;;;;;;486800;244;28661;-79
2023/07/06 06:39:51;;;;;;;5.57;2.83;;;14.50;99.90;;;;;;486760;244;28737;-79
2023/07/06 06:41:52;;;;;;;4.10;2.90;;;14.50;99.90;;;;;;486673;244;28761;-79
2023/07/06 06:43:52;;;;;;;4.77;3.00;;;14.60;99.90;;;;;;486571;244;28858;-79
2023/07/06 06:45:54;;;;;;;4.40;3.07;;;14.70;99.90;;;;;;486059;244;29070;-79
2023/07/06 06:47:55;;;;;;;3.33;2.40;;;14.70;99.90;;;;;;486803;244;28758;-79
2023/07/06 06:49:56;;;;;;;4.03;2.70;;;14.70;99.90;;;;;;486815;244;28772;-79
2023/07/06 06:51:57;;;;;;;3.60;2.70;;;14.80;99.90;;;;;;486776;244;29107;-79
2023/07/06 06:53:59;;;;;;;3.20;2.90;;;14.90;99.90;;;;;;486782;244;29282;-79
2023/07/06 06:56:02;;;;;;;3.40;2.77;;;15.00;99.90;;;;;;486802;244;29265;-79
2023/07/06 06:58:03;;;;;;;4.30;2.60;;;15.00;99.90;;;;;;486666;244;28668;-79
2023/07/06 07:00:06;;;;;;;2.60;2.30;;;15.00;99.90;;;;;;486680;244;28825;-79
2023/07/06 07:02:04;;;;;;;5.73;2.20;;;15.00;99.90;;;;;;486583;241;28759;-79
2023/07/06 07:04:05;;;;;;;3.63;2.37;;;15.00;99.90;;;;;;486764;244;28700;-79
2023/07/06 07:06:11;;;;;;;3.07;2.77;;;15.10;99.90;;;;;;486777;244;28752;-78
2023/07/06 07:08:07;;;;;;;5.57;2.90;;;15.10;99.90;;;;;;486363;244;28669;-78
2023/07/06 07:10:09;;;;;;;4.50;3.10;;;15.20;99.90;;;;;;486806;244;28835;-80
2023/07/06 07:12:10;;;;;;;6.97;3.03;;;15.40;99.90;;;;;;486821;244;28650;-79
2023/07/06 07:14:13;;;;;;;4.67;2.97;;;15.40;99.90;;;;;;486779;244;28706;-79
2023/07/06 07:16:12;;;;;;;5.33;3.03;;;15.50;99.90;;;;;;486675;244;28697;-79
2023/07/06 07:18:15;;;;;;;4.13;2.63;;;15.60;99.90;;;;;;486782;244;29096;-79
2023/07/06 07:20:15;;;;;;;5.47;2.57;;;15.60;99.90;;;;;;486680;244;29346;-78
2023/07/06 07:22:16;;;;;;;5.73;2.70;;;15.60;99.90;;;;;;486765;244;28761;-79
2023/07/06 07:24:17;;;;;;;4.70;2.53;;;15.70;99.90;;;;;;486762;244;28789;-79
2023/07/06 07:26:19;;;;;;;3.77;2.60;;;15.70;99.90;;;;;;486766;244;28689;-79
2023/07/06 07:28:21;;;;;;;3.73;3.23;;;15.70;99.90;;;;;;486756;244;28685;-80
2023/07/06 07:30:21;;;;;;;4.50;2.83;;;15.70;99.90;;;;;;486725;244;29152;-79
2023/07/06 07:32:22;;;;;;;7.27;3.17;;;15.70;99.90;;;;;;486764;244;28712;-79
2023/07/06 07:34:27;;;;;;;5.00;2.50;;;15.70;99.90;;;;;;486758;244;28720;-78
2023/07/06 07:36:25;;;;;;;4.10;2.53;;;15.80;99.90;;;;;;486559;244;28681;-79
2023/07/06 07:38:26;;;;;;;4.60;2.87;;;15.80;99.90;;;;;;486771;244;28764;-79
2023/07/06 07:40:27;;;;;;;6.80;2.90;;;15.90;99.90;;;;;;486728;244;29236;-77
2023/07/06 07:42:30;;;;;;;3.60;2.40;;;16.00;99.90;;;;;;486757;244;29160;-80
2023/07/06 07:44:30;;;;;;;4.53;2.70;;;16.10;99.90;;;;;;486709;244;29181;-80
2023/07/06 07:46:31;;;;;;;4.40;2.40;;;16.10;99.90;;;;;;486758;244;29228;-79
2023/07/06 07:48:33;;;;;;;4.87;2.77;;;16.20;99.90;;;;;;486760;244;28708;-79
2023/07/06 07:50:34;;;;;;;3.17;2.70;;;16.20;99.90;;;;;;486789;244;28771;-80
2023/07/06 07:52:35;;;;;;;4.93;2.63;;;16.30;99.90;;;;;;486753;244;28745;-78
2023/07/06 07:54:36;;;;;;;2.77;2.53;;;16.30;99.90;;;;;;486779;244;28692;-79
2023/07/06 07:56:37;;;;;;;3.93;2.70;;;16.40;99.90;;;;;;486755;244;28710;-79
2023/07/06 07:58:40;;;;;;;6.33;2.60;;;16.60;99.90;;;;;;486750;244;28776;-79
2023/07/06 08:00:40;;;;;;;4.43;2.50;;;16.70;99.90;;;;;;486703;244;29099;-79
2023/07/06 08:02:41;;;;;;;4.70;2.70;;;16.70;99.90;;;;;;486779;244;28668;-79
2023/07/06 08:04:42;;;;;;;2.70;2.17;;;16.70;99.90;;;;;;486771;244;28714;-79
2023/07/06 08:06:44;;;;;;;6.93;2.97;;;16.80;99.90;;;;;;486725;244;29222;-79
2023/07/06 08:08:45;;;;;;;3.50;2.60;;;16.90;99.90;;;;;;486738;244;29459;-79
2023/07/06 08:10:46;;;;;;;3.43;2.20;;;16.90;99.90;;;;;;486684;244;29365;-78
2023/07/06 08:12:48;;;;;;;3.90;2.20;;;17.00;99.90;;;;;;486757;244;28709;-79
2023/07/06 08:14:49;;;;;;;6.13;2.70;;;17.10;99.90;;;;;;486731;244;28708;-79
2023/07/06 08:16:50;;;;;;;3.87;2.53;;;17.20;99.90;;;;;;486703;244;28668;-79
2023/07/06 08:18:51;;;;;;;2.70;2.10;;;17.40;99.90;;;;;;486702;244;28804;-79
2023/07/06 08:20:53;;;;;;;2.40;2.20;;;17.60;99.90;;;;;;486739;244;28691;-79
2023/07/06 08:22:54;;;;;;;2.80;2.50;;;17.80;99.90;;;;;;486721;244;28822;-79
2023/07/06 08:24:55;;;;;;;3.37;2.40;;;17.80;99.90;;;;;;486565;244;28719;-79
2023/07/06 08:26:56;;;;;;;5.50;2.47;;;18.00;99.90;;;;;;486699;244;28656;-79
2023/07/06 08:28:57;;;;;;;4.90;2.57;;;18.10;99.90;;;;;;486732;244;28789;-80
2023/07/06 08:31:03;;;;;;;3.37;2.33;;;18.20;99.90;;;;;;486730;244;30203;-79
2023/07/06 08:33:03;;;;;;;5.87;2.40;;;18.50;99.90;;;;;;486621;244;28704;-79
2023/07/06 08:35:04;;;;;;;2.60;2.40;;;18.80;99.90;;;;;;486695;244;28653;-79
2023/07/06 08:37:05;;;;;;;2.47;2.00;;;18.90;99.90;;;;;;486708;244;29298;-79
2023/07/06 08:39:08;;;;;;;3.83;2.43;;;19.00;99.90;;;;;;486709;244;29202;-78
2023/07/06 08:41:08;;;;;;;5.73;2.47;;;18.80;99.90;;;;;;486619;244;29181;-79
2023/07/06 08:43:09;;;;;;;3.73;2.30;;;18.70;99.90;;;;;;486707;244;29901;-79
2023/07/06 08:45:10;;;;;;;7.50;2.70;;;18.60;99.90;;;;;;486753;244;28775;-79
2023/07/06 08:47:13;;;;;;;5.07;2.43;;;18.60;99.90;;;;;;486744;244;28841;-79
2023/07/06 08:49:13;;;;;;;5.27;2.70;;;18.70;99.90;;;;;;486632;244;28699;-79
2023/07/06 08:51:15;;;;;;;3.70;2.50;;;19.00;99.90;;;;;;486736;244;28721;-78
2023/07/06 08:53:15;;;;;;;3.60;2.60;;;19.10;99.90;;;;;;486654;244;28659;-79
2023/07/06 08:55:17;;;;;;;4.13;2.57;;;19.10;99.90;;;;;;486732;244;28734;-78
2023/07/06 08:57:18;;;;;;;5.20;2.93;;;19.20;99.90;;;;;;486743;244;28701;-79
2023/07/06 08:59:19;;;;;;;5.13;2.30;;;19.30;99.90;;;;;;486737;244;28665;-79
2023/07/06 09:01:23;;;;;;;3.40;2.80;;;19.20;99.90;;;;;;486716;244;29197;-79
2023/07/06 09:03:24;;;;;;;4.07;2.37;;;19.10;99.90;;;;;;486752;244;28716;-79
2023/07/06 09:05:31;;;;;;;3.03;2.20;;;18.80;99.90;;;;;;486713;244;28748;-78
2023/07/06 09:07:27;;;;;;;3.00;2.67;;;18.70;99.90;;;;;;486469;244;28780;-79
2023/07/06 09:09:28;;;;;;;4.00;2.50;;;18.60;99.90;;;;;;486760;244;29049;-79
2023/07/06 09:11:31;;;;;;;5.50;2.70;;;18.70;99.90;;;;;;486779;244;28785;-79
2023/07/06 09:13:36;;;;;;;3.20;2.33;;;18.70;99.90;;;;;;486665;244;28800;-79
2023/07/06 09:15:32;;;;;;;4.13;3.17;;;18.70;99.90;;;;;;486443;244;28664;-79
2023/07/06 09:17:34;;;;;;;4.10;2.47;;;18.70;99.90;;;;;;486759;244;29233;-79
2023/07/06 09:19:34;;;;;;;3.97;2.60;;;18.80;99.90;;;;;;486710;244;29352;-78
2023/07/06 09:21:36;;;;;;;4.10;2.23;;;18.80;99.90;;;;;;486782;244;29227;-79
2023/07/06 09:23:37;;;;;;;4.60;2.30;;;18.70;99.90;;;;;;486780;244;29328;-79
2023/07/06 09:25:38;;;;;;;2.30;2.10;;;18.70;99.90;;;;;;486754;244;28667;-78
2023/07/06 09:27:39;;;;;;;2.80;2.43;;;18.60;99.90;;;;;;486729;244;28683;-78
2023/07/06 09:29:41;;;;;;;4.07;2.47;;;18.60;99.90;;;;;;486722;244;28684;-79
2023/07/06 09:31:43;;;;;;;2.60;2.37;;;18.60;99.90;;;;;;486732;244;28772;-79
2023/07/06 09:33:43;;;;;;;4.15;2.30;;;18.80;99.90;;;;;;485725;244;45583;-79
2023/07/06 09:35:44;;;;;;;3.33;2.70;;;18.90;99.90;;;;;;486750;244;27431;-79
2023/07/06 09:37:46;;;;;;;5.47;2.00;;;19.10;99.90;;;;;;486739;244;28819;-79
2023/07/06 09:39:47;;;;;;;6.83;2.40;;;19.30;99.90;;;;;;486708;244;28656;-78
2023/07/06 09:41:48;;;;;;;4.33;2.60;;;19.40;99.90;;;;;;486723;244;29227;-78
2023/07/06 09:43:49;;;;;;;2.03;1.83;;;19.30;99.90;;;;;;486740;244;29177;-79
2023/07/06 09:45:51;;;;;;;3.07;2.77;;;19.40;99.90;;;;;;486726;244;29101;-79
2023/07/06 09:47:54;;;;;;;4.10;2.43;;;19.60;99.90;;;;;;486721;244;29670;-78
2023/07/06 09:49:53;;;;;;;3.70;2.40;;;19.80;99.90;;;;;;486573;244;28702;-79
2023/07/06 09:51:54;;;;;;;8.13;2.60;;;20.00;99.90;;;;;;486722;244;28770;-79
2023/07/06 09:53:56;;;;;;;5.73;2.60;;;20.00;99.90;;;;;;486707;244;28714;-79
2023/07/06 09:55:57;;;;;;;6.40;2.43;;;20.00;99.90;;;;;;486704;244;28653;-79
2023/07/06 09:57:58;;;;;;;6.03;3.10;;;20.00;99.90;;;;;;486720;244;28808;-79
2023/07/06 10:00:00;;;;;;;4.23;2.40;;;19.80;99.90;;;;;;486721;244;28866;-79
2023/07/06 10:02:01;;;;;;;2.53;2.33;;;19.80;99.90;;;;;;486683;244;28788;-79
2023/07/06 10:04:02;;;;;;;4.73;2.70;;;19.80;99.90;;;;;;486747;244;28716;-78
2023/07/06 10:06:03;;;;;;;2.93;2.50;;;19.80;99.90;;;;;;486740;244;29203;-80
2023/07/06 10:08:05;;;;;;;4.30;2.50;;;19.70;99.90;;;;;;486706;244;29184;-79
2023/07/06 10:10:06;;;;;;;3.83;2.63;;;19.80;99.90;;;;;;486666;244;29232;-79
2023/07/06 10:12:08;;;;;;;3.73;2.43;;;19.90;99.90;;;;;;486683;244;29198;-79
2023/07/06 10:14:09;;;;;;;4.97;2.50;;;19.90;99.90;;;;;;486655;244;28808;-78
2023/07/06 10:16:09;;;;;;;2.73;2.47;;;19.90;99.90;;;;;;486694;244;28679;-79
2023/07/06 10:18:11;;;;;;;5.00;2.40;;;19.90;99.90;;;;;;486710;244;28696;-79
2023/07/06 10:20:12;;;;;;;8.23;2.70;;;19.60;99.90;;;;;;486711;244;28641;-80
2023/07/06 10:22:13;;;;;;;3.10;2.10;;;19.40;99.90;;;;;;486693;244;28700;-79
2023/07/06 10:24:15;;;;;;;2.77;2.33;;;19.30;99.90;;;;;;486754;244;29062;-79
2023/07/06 10:26:17;;;;;;;2.80;2.30;;;19.30;99.90;;;;;;486758;244;28661;-79
2023/07/06 10:28:17;;;;;;;2.67;2.33;;;19.30;99.90;;;;;;486754;244;28695;-79
2023/07/06 10:30:19;;;;;;;4.50;2.73;;;19.40;99.90;;;;;;486739;244;28769;-79
2023/07/06 10:32:19;;;;;;;2.53;2.30;;;19.50;99.90;;;;;;486674;244;29148;-78